sensor_id;sensor_type;location;lat;lon;timestamp;P1;durP1;ratioP1;P2;durP2;ratioP2
21354;SDS011;10835;50.148;19.760;2023-05-14T00:00:42;5.15;;;3.35;;
21354;SDS011;10835;50.148;19.760;2023-05-14T00:03:10;7.78;;;3.75;;
21354;SDS011;10835;50.148;19.760;2023-05-14T00:05:39;5.60;;;3.38;;
21354;SDS011;10835;50.148;19.760;2023-05-14T00:08:07;6.95;;;3.67;;
21354;SDS011;10835;50.148;19.760;2023-05-14T00:10:35;5.05;;;3.35;;
21354;SDS011;10835;50.148;19.760;2023-05-14T00:13:04;5.75;;;2.85;;
21354;SDS011;10835;50.148;19.760;2023-05-14T00:15:32;5.30;;;3.00;;
21354;SDS011;10835;50.148;19.760;2023-05-14T00:18:04;5.55;;;3.20;;
21354;SDS011;10835;50.148;19.760;2023-05-14T00:20:32;5.72;;;3.28;;
21354;SDS011;10835;50.148;19.760;2023-05-14T00:23:00;7.38;;;3.45;;
21354;SDS011;10835;50.148;19.760;2023-05-14T00:25:29;3.47;;;2.33;;
21354;SDS011;10835;50.148;19.760;2023-05-14T00:27:57;6.18;;;3.30;;
21354;SDS011;10835;50.148;19.760;2023-05-14T00:30:25;4.50;;;3.20;;
21354;SDS011;10835;50.148;19.760;2023-05-14T00:32:54;3.85;;;2.70;;
21354;SDS011;10835;50.148;19.760;2023-05-14T00:35:42;4.30;;;2.88;;
21354;SDS011;10835;50.148;19.760;2023-05-14T00:38:30;7.38;;;2.85;;
21354;SDS011;10835;50.148;19.760;2023-05-14T00:40:59;6.35;;;2.78;;
21354;SDS011;10835;50.148;19.760;2023-05-14T00:43:30;6.43;;;2.95;;
21354;SDS011;10835;50.148;19.760;2023-05-14T00:45:59;4.28;;;3.10;;
21354;SDS011;10835;50.148;19.760;2023-05-14T00:48:27;5.15;;;3.20;;
21354;SDS011;10835;50.148;19.760;2023-05-14T00:50:57;4.38;;;3.10;;
21354;SDS011;10835;50.148;19.760;2023-05-14T00:53:26;5.40;;;3.05;;
21354;SDS011;10835;50.148;19.760;2023-05-14T00:55:54;5.82;;;2.75;;
21354;SDS011;10835;50.148;19.760;2023-05-14T00:58:23;3.90;;;2.47;;
21354;SDS011;10835;50.148;19.760;2023-05-14T01:00:52;4.88;;;2.60;;
21354;SDS011;10835;50.148;19.760;2023-05-14T01:03:20;3.53;;;2.50;;
21354;SDS011;10835;50.148;19.760;2023-05-14T01:05:52;6.03;;;2.80;;
21354;SDS011;10835;50.148;19.760;2023-05-14T01:08:29;4.15;;;2.60;;
21354;SDS011;10835;50.148;19.760;2023-05-14T01:11:04;5.43;;;3.35;;
21354;SDS011;10835;50.148;19.760;2023-05-14T01:13:39;4.93;;;3.22;;
21354;SDS011;10835;50.148;19.760;2023-05-14T01:16:15;4.45;;;2.90;;
21354;SDS011;10835;50.148;19.760;2023-05-14T01:18:45;3.88;;;2.70;;
21354;SDS011;10835;50.148;19.760;2023-05-14T01:21:17;5.28;;;3.30;;
21354;SDS011;10835;50.148;19.760;2023-05-14T01:24:11;6.57;;;2.97;;
21354;SDS011;10835;50.148;19.760;2023-05-14T01:26:40;4.25;;;3.10;;
21354;SDS011;10835;50.148;19.760;2023-05-14T01:29:10;6.47;;;3.15;;
21354;SDS011;10835;50.148;19.760;2023-05-14T01:31:46;4.43;;;3.08;;
21354;SDS011;10835;50.148;19.760;2023-05-14T01:34:18;5.38;;;2.70;;
21354;SDS011;10835;50.148;19.760;2023-05-14T01:36:50;4.93;;;3.17;;
21354;SDS011;10835;50.148;19.760;2023-05-14T01:39:22;5.30;;;2.97;;
21354;SDS011;10835;50.148;19.760;2023-05-14T01:41:53;4.55;;;2.97;;
21354;SDS011;10835;50.148;19.760;2023-05-14T01:44:22;5.32;;;2.95;;
21354;SDS011;10835;50.148;19.760;2023-05-14T01:46:51;7.60;;;3.08;;
21354;SDS011;10835;50.148;19.760;2023-05-14T01:49:22;6.07;;;3.35;;
21354;SDS011;10835;50.148;19.760;2023-05-14T01:51:51;7.20;;;3.25;;
21354;SDS011;10835;50.148;19.760;2023-05-14T01:54:19;5.65;;;3.03;;
21354;SDS011;10835;50.148;19.760;2023-05-14T01:56:48;4.60;;;2.97;;
21354;SDS011;10835;50.148;19.760;2023-05-14T01:59:16;6.15;;;3.50;;
21354;SDS011;10835;50.148;19.760;2023-05-14T02:01:44;4.75;;;3.30;;
21354;SDS011;10835;50.148;19.760;2023-05-14T02:04:12;3.80;;;2.65;;
21354;SDS011;10835;50.148;19.760;2023-05-14T02:06:40;3.13;;;2.40;;
21354;SDS011;10835;50.148;19.760;2023-05-14T02:09:10;4.05;;;2.85;;
21354;SDS011;10835;50.148;19.760;2023-05-14T02:11:38;5.80;;;2.90;;
21354;SDS011;10835;50.148;19.760;2023-05-14T02:14:06;5.65;;;3.00;;
21354;SDS011;10835;50.148;19.760;2023-05-14T02:16:34;4.22;;;2.70;;
21354;SDS011;10835;50.148;19.760;2023-05-14T02:19:02;6.25;;;3.58;;
21354;SDS011;10835;50.148;19.760;2023-05-14T02:21:30;5.38;;;3.55;;
21354;SDS011;10835;50.148;19.760;2023-05-14T02:23:58;6.05;;;3.60;;
21354;SDS011;10835;50.148;19.760;2023-05-14T02:26:27;6.85;;;3.53;;
21354;SDS011;10835;50.148;19.760;2023-05-14T02:28:55;4.90;;;3.70;;
21354;SDS011;10835;50.148;19.760;2023-05-14T02:31:24;4.82;;;3.08;;
21354;SDS011;10835;50.148;19.760;2023-05-14T02:33:52;6.35;;;3.25;;
21354;SDS011;10835;50.148;19.760;2023-05-14T02:36:20;4.45;;;2.65;;
21354;SDS011;10835;50.148;19.760;2023-05-14T02:38:48;5.22;;;2.70;;
21354;SDS011;10835;50.148;19.760;2023-05-14T02:41:16;3.40;;;2.60;;
21354;SDS011;10835;50.148;19.760;2023-05-14T02:43:45;3.75;;;2.13;;
21354;SDS011;10835;50.148;19.760;2023-05-14T02:46:13;5.10;;;3.10;;
21354;SDS011;10835;50.148;19.760;2023-05-14T02:48:41;5.32;;;2.65;;
21354;SDS011;10835;50.148;19.760;2023-05-14T02:51:09;5.00;;;2.97;;
21354;SDS011;10835;50.148;19.760;2023-05-14T02:53:38;7.32;;;3.75;;
21354;SDS011;10835;50.148;19.760;2023-05-14T02:56:06;5.22;;;2.78;;
21354;SDS011;10835;50.148;19.760;2023-05-14T02:58:34;4.70;;;3.08;;
21354;SDS011;10835;50.148;19.760;2023-05-14T03:01:03;3.63;;;2.63;;
21354;SDS011;10835;50.148;19.760;2023-05-14T03:03:32;5.43;;;2.53;;
21354;SDS011;10835;50.148;19.760;2023-05-14T03:06:02;5.93;;;3.08;;
21354;SDS011;10835;50.148;19.760;2023-05-14T03:08:30;6.22;;;3.20;;
21354;SDS011;10835;50.148;19.760;2023-05-14T03:10:59;5.65;;;3.10;;
21354;SDS011;10835;50.148;19.760;2023-05-14T03:13:27;4.32;;;2.80;;
21354;SDS011;10835;50.148;19.760;2023-05-14T03:15:55;5.20;;;3.25;;
21354;SDS011;10835;50.148;19.760;2023-05-14T03:18:24;3.22;;;2.75;;
21354;SDS011;10835;50.148;19.760;2023-05-14T03:20:53;6.28;;;3.13;;
21354;SDS011;10835;50.148;19.760;2023-05-14T03:23:22;4.45;;;2.90;;
21354;SDS011;10835;50.148;19.760;2023-05-14T03:25:50;4.22;;;3.05;;
21354;SDS011;10835;50.148;19.760;2023-05-14T03:28:18;4.85;;;3.10;;
21354;SDS011;10835;50.148;19.760;2023-05-14T03:30:46;3.78;;;2.67;;
21354;SDS011;10835;50.148;19.760;2023-05-14T03:33:14;5.30;;;3.03;;
21354;SDS011;10835;50.148;19.760;2023-05-14T03:35:43;5.20;;;3.00;;
21354;SDS011;10835;50.148;19.760;2023-05-14T03:38:11;4.22;;;2.72;;
21354;SDS011;10835;50.148;19.760;2023-05-14T03:40:39;3.33;;;2.70;;
21354;SDS011;10835;50.148;19.760;2023-05-14T03:43:08;4.97;;;2.72;;
21354;SDS011;10835;50.148;19.760;2023-05-14T03:45:36;5.60;;;3.08;;
21354;SDS011;10835;50.148;19.760;2023-05-14T03:48:05;4.30;;;2.65;;
21354;SDS011;10835;50.148;19.760;2023-05-14T03:50:33;4.13;;;2.95;;
21354;SDS011;10835;50.148;19.760;2023-05-14T03:53:03;4.53;;;3.10;;
21354;SDS011;10835;50.148;19.760;2023-05-14T03:55:31;4.90;;;2.72;;
21354;SDS011;10835;50.148;19.760;2023-05-14T03:57:59;4.72;;;2.80;;
21354;SDS011;10835;50.148;19.760;2023-05-14T04:00:27;5.72;;;3.45;;
21354;SDS011;10835;50.148;19.760;2023-05-14T04:02:55;4.20;;;2.88;;
21354;SDS011;10835;50.148;19.760;2023-05-14T04:05:23;6.75;;;3.28;;
21354;SDS011;10835;50.148;19.760;2023-05-14T04:07:51;4.97;;;3.33;;
21354;SDS011;10835;50.148;19.760;2023-05-14T04:10:20;5.72;;;3.72;;
21354;SDS011;10835;50.148;19.760;2023-05-14T04:12:49;7.85;;;3.60;;
21354;SDS011;10835;50.148;19.760;2023-05-14T04:15:17;4.15;;;2.85;;
21354;SDS011;10835;50.148;19.760;2023-05-14T04:17:45;5.18;;;3.17;;
21354;SDS011;10835;50.148;19.760;2023-05-14T04:20:13;3.88;;;3.00;;
21354;SDS011;10835;50.148;19.760;2023-05-14T04:22:41;5.07;;;3.00;;
21354;SDS011;10835;50.148;19.760;2023-05-14T04:25:09;5.97;;;2.83;;
21354;SDS011;10835;50.148;19.760;2023-05-14T04:27:38;6.97;;;2.88;;
21354;SDS011;10835;50.148;19.760;2023-05-14T04:30:07;3.08;;;2.45;;
21354;SDS011;10835;50.148;19.760;2023-05-14T04:32:36;5.30;;;3.05;;
21354;SDS011;10835;50.148;19.760;2023-05-14T04:35:05;5.25;;;3.08;;
21354;SDS011;10835;50.148;19.760;2023-05-14T04:37:34;3.95;;;2.80;;
21354;SDS011;10835;50.148;19.760;2023-05-14T04:40:02;6.18;;;2.70;;
21354;SDS011;10835;50.148;19.760;2023-05-14T04:42:32;4.78;;;2.53;;
21354;SDS011;10835;50.148;19.760;2023-05-14T04:45:01;4.38;;;2.70;;
21354;SDS011;10835;50.148;19.760;2023-05-14T04:47:30;4.40;;;3.00;;
21354;SDS011;10835;50.148;19.760;2023-05-14T04:49:59;5.05;;;2.95;;
21354;SDS011;10835;50.148;19.760;2023-05-14T04:52:27;3.65;;;2.67;;
21354;SDS011;10835;50.148;19.760;2023-05-14T04:54:55;3.85;;;2.78;;
21354;SDS011;10835;50.148;19.760;2023-05-14T04:57:23;5.57;;;3.22;;
21354;SDS011;10835;50.148;19.760;2023-05-14T04:59:50;4.05;;;2.80;;
21354;SDS011;10835;50.148;19.760;2023-05-14T05:02:20;3.75;;;2.50;;
21354;SDS011;10835;50.148;19.760;2023-05-14T05:04:48;3.33;;;2.22;;
21354;SDS011;10835;50.148;19.760;2023-05-14T05:07:15;4.40;;;3.00;;
21354;SDS011;10835;50.148;19.760;2023-05-14T05:09:43;5.50;;;2.88;;
21354;SDS011;10835;50.148;19.760;2023-05-14T05:12:11;3.50;;;2.72;;
21354;SDS011;10835;50.148;19.760;2023-05-14T05:14:39;6.05;;;3.05;;
21354;SDS011;10835;50.148;19.760;2023-05-14T05:17:07;4.57;;;2.83;;
21354;SDS011;10835;50.148;19.760;2023-05-14T05:19:36;4.50;;;2.83;;
21354;SDS011;10835;50.148;19.760;2023-05-14T05:22:09;4.75;;;3.10;;
21354;SDS011;10835;50.148;19.760;2023-05-14T05:24:37;3.95;;;2.80;;
21354;SDS011;10835;50.148;19.760;2023-05-14T05:27:05;5.22;;;2.72;;
21354;SDS011;10835;50.148;19.760;2023-05-14T05:29:33;4.10;;;2.72;;
21354;SDS011;10835;50.148;19.760;2023-05-14T05:32:01;3.38;;;2.40;;
21354;SDS011;10835;50.148;19.760;2023-05-14T05:34:29;3.75;;;2.60;;
21354;SDS011;10835;50.148;19.760;2023-05-14T05:36:58;3.55;;;2.70;;
21354;SDS011;10835;50.148;19.760;2023-05-14T05:39:26;5.38;;;3.20;;
21354;SDS011;10835;50.148;19.760;2023-05-14T05:42:00;4.22;;;2.58;;
21354;SDS011;10835;50.148;19.760;2023-05-14T05:44:28;4.72;;;2.45;;
21354;SDS011;10835;50.148;19.760;2023-05-14T05:46:56;3.47;;;2.60;;
21354;SDS011;10835;50.148;19.760;2023-05-14T05:49:24;6.47;;;2.70;;
21354;SDS011;10835;50.148;19.760;2023-05-14T05:51:52;2.88;;;2.13;;
21354;SDS011;10835;50.148;19.760;2023-05-14T05:54:21;3.15;;;2.05;;
21354;SDS011;10835;50.148;19.760;2023-05-14T05:56:49;3.90;;;2.50;;
21354;SDS011;10835;50.148;19.760;2023-05-14T05:59:17;3.65;;;2.78;;
21354;SDS011;10835;50.148;19.760;2023-05-14T06:01:45;4.65;;;2.72;;
21354;SDS011;10835;50.148;19.760;2023-05-14T06:04:13;5.07;;;2.38;;
21354;SDS011;10835;50.148;19.760;2023-05-14T06:06:41;4.68;;;2.55;;
21354;SDS011;10835;50.148;19.760;2023-05-14T06:09:09;7.20;;;2.88;;
21354;SDS011;10835;50.148;19.760;2023-05-14T06:11:39;3.35;;;2.50;;
21354;SDS011;10835;50.148;19.760;2023-05-14T06:14:07;3.40;;;2.20;;
21354;SDS011;10835;50.148;19.760;2023-05-14T06:16:35;4.00;;;2.38;;
21354;SDS011;10835;50.148;19.760;2023-05-14T06:19:03;3.95;;;2.67;;
21354;SDS011;10835;50.148;19.760;2023-05-14T06:21:31;5.22;;;2.58;;
21354;SDS011;10835;50.148;19.760;2023-05-14T06:23:59;3.15;;;2.38;;
21354;SDS011;10835;50.148;19.760;2023-05-14T06:26:27;8.85;;;2.60;;
21354;SDS011;10835;50.148;19.760;2023-05-14T06:28:56;3.85;;;2.33;;
21354;SDS011;10835;50.148;19.760;2023-05-14T06:31:25;3.72;;;2.80;;
21354;SDS011;10835;50.148;19.760;2023-05-14T06:33:53;3.10;;;2.40;;
21354;SDS011;10835;50.148;19.760;2023-05-14T06:36:21;4.72;;;3.22;;
21354;SDS011;10835;50.148;19.760;2023-05-14T06:38:49;3.42;;;2.50;;
21354;SDS011;10835;50.148;19.760;2023-05-14T06:41:16;4.22;;;2.97;;
21354;SDS011;10835;50.148;19.760;2023-05-14T06:43:45;4.00;;;2.85;;
21354;SDS011;10835;50.148;19.760;2023-05-14T06:46:15;4.07;;;2.42;;
21354;SDS011;10835;50.148;19.760;2023-05-14T06:48:43;3.88;;;2.65;;
21354;SDS011;10835;50.148;19.760;2023-05-14T06:51:11;7.80;;;3.17;;
21354;SDS011;10835;50.148;19.760;2023-05-14T06:53:39;4.68;;;3.08;;
21354;SDS011;10835;50.148;19.760;2023-05-14T06:56:07;4.00;;;2.90;;
21354;SDS011;10835;50.148;19.760;2023-05-14T06:58:35;5.15;;;3.08;;
21354;SDS011;10835;50.148;19.760;2023-05-14T07:01:03;6.30;;;2.72;;
21354;SDS011;10835;50.148;19.760;2023-05-14T07:03:35;5.20;;;3.55;;
21354;SDS011;10835;50.148;19.760;2023-05-14T07:06:04;4.45;;;3.13;;
21354;SDS011;10835;50.148;19.760;2023-05-14T07:08:32;6.00;;;3.30;;
21354;SDS011;10835;50.148;19.760;2023-05-14T07:11:01;5.13;;;3.42;;
21354;SDS011;10835;50.148;19.760;2023-05-14T07:13:29;4.53;;;3.50;;
21354;SDS011;10835;50.148;19.760;2023-05-14T07:15:57;5.97;;;3.50;;
21354;SDS011;10835;50.148;19.760;2023-05-14T07:18:25;6.10;;;2.85;;
21354;SDS011;10835;50.148;19.760;2023-05-14T07:20:55;4.90;;;2.97;;
21354;SDS011;10835;50.148;19.760;2023-05-14T07:23:23;5.93;;;2.90;;
21354;SDS011;10835;50.148;19.760;2023-05-14T07:25:51;5.85;;;2.92;;
21354;SDS011;10835;50.148;19.760;2023-05-14T07:28:19;4.68;;;3.17;;
21354;SDS011;10835;50.148;19.760;2023-05-14T07:30:48;5.95;;;3.30;;
21354;SDS011;10835;50.148;19.760;2023-05-14T07:33:17;7.38;;;3.28;;
21354;SDS011;10835;50.148;19.760;2023-05-14T07:35:46;3.78;;;2.83;;
21354;SDS011;10835;50.148;19.760;2023-05-14T07:38:17;5.28;;;3.17;;
21354;SDS011;10835;50.148;19.760;2023-05-14T07:40:48;4.07;;;2.88;;
21354;SDS011;10835;50.148;19.760;2023-05-14T07:43:16;4.32;;;2.90;;
21354;SDS011;10835;50.148;19.760;2023-05-14T07:45:46;4.47;;;2.75;;
21354;SDS011;10835;50.148;19.760;2023-05-14T07:48:15;4.18;;;3.22;;
21354;SDS011;10835;50.148;19.760;2023-05-14T07:50:44;3.30;;;2.42;;
21354;SDS011;10835;50.148;19.760;2023-05-14T07:53:13;5.68;;;3.00;;
21354;SDS011;10835;50.148;19.760;2023-05-14T07:55:50;5.18;;;3.15;;
21354;SDS011;10835;50.148;19.760;2023-05-14T07:58:18;5.07;;;2.95;;
21354;SDS011;10835;50.148;19.760;2023-05-14T08:00:49;4.22;;;3.05;;
21354;SDS011;10835;50.148;19.760;2023-05-14T08:03:21;4.07;;;3.10;;
21354;SDS011;10835;50.148;19.760;2023-05-14T08:05:51;3.47;;;2.80;;
21354;SDS011;10835;50.148;19.760;2023-05-14T08:08:20;8.80;;;3.00;;
21354;SDS011;10835;50.148;19.760;2023-05-14T08:10:49;3.22;;;2.25;;
21354;SDS011;10835;50.148;19.760;2023-05-14T08:13:18;4.95;;;2.85;;
21354;SDS011;10835;50.148;19.760;2023-05-14T08:15:46;4.35;;;2.85;;
21354;SDS011;10835;50.148;19.760;2023-05-14T08:18:15;6.00;;;3.00;;
21354;SDS011;10835;50.148;19.760;2023-05-14T08:20:43;4.15;;;2.90;;
21354;SDS011;10835;50.148;19.760;2023-05-14T08:23:12;5.38;;;2.55;;
21354;SDS011;10835;50.148;19.760;2023-05-14T08:25:40;3.97;;;2.33;;
21354;SDS011;10835;50.148;19.760;2023-05-14T08:28:09;3.03;;;2.45;;
21354;SDS011;10835;50.148;19.760;2023-05-14T08:30:37;5.25;;;2.92;;
21354;SDS011;10835;50.148;19.760;2023-05-14T08:33:07;4.03;;;2.75;;
21354;SDS011;10835;50.148;19.760;2023-05-14T08:35:35;3.80;;;2.60;;
21354;SDS011;10835;50.148;19.760;2023-05-14T08:38:07;6.40;;;2.90;;
21354;SDS011;10835;50.148;19.760;2023-05-14T08:40:35;3.25;;;2.25;;
21354;SDS011;10835;50.148;19.760;2023-05-14T08:43:03;3.70;;;2.60;;
21354;SDS011;10835;50.148;19.760;2023-05-14T08:45:34;3.40;;;2.53;;
21354;SDS011;10835;50.148;19.760;2023-05-14T08:48:03;2.47;;;2.25;;
21354;SDS011;10835;50.148;19.760;2023-05-14T08:50:42;3.15;;;2.38;;
21354;SDS011;10835;50.148;19.760;2023-05-14T08:53:12;3.95;;;2.25;;
21354;SDS011;10835;50.148;19.760;2023-05-14T08:55:42;2.33;;;2.05;;
21354;SDS011;10835;50.148;19.760;2023-05-14T08:58:12;3.58;;;2.60;;
21354;SDS011;10835;50.148;19.760;2023-05-14T09:00:41;3.83;;;2.50;;
21354;SDS011;10835;50.148;19.760;2023-05-14T09:03:09;2.92;;;2.20;;
21354;SDS011;10835;50.148;19.760;2023-05-14T09:05:40;4.45;;;2.25;;
21354;SDS011;10835;50.148;19.760;2023-05-14T09:08:08;4.30;;;2.60;;
21354;SDS011;10835;50.148;19.760;2023-05-14T09:10:36;2.25;;;1.90;;
21354;SDS011;10835;50.148;19.760;2023-05-14T09:13:05;2.58;;;2.20;;
21354;SDS011;10835;50.148;19.760;2023-05-14T09:15:35;4.80;;;2.90;;
21354;SDS011;10835;50.148;19.760;2023-05-14T09:18:07;3.13;;;2.55;;
21354;SDS011;10835;50.148;19.760;2023-05-14T09:20:36;5.00;;;2.65;;
21354;SDS011;10835;50.148;19.760;2023-05-14T09:23:06;4.78;;;2.30;;
21354;SDS011;10835;50.148;19.760;2023-05-14T09:25:35;4.25;;;2.50;;
21354;SDS011;10835;50.148;19.760;2023-05-14T09:28:04;3.92;;;2.80;;
21354;SDS011;10835;50.148;19.760;2023-05-14T09:30:34;3.00;;;2.30;;
21354;SDS011;10835;50.148;19.760;2023-05-14T09:33:02;3.75;;;2.00;;
21354;SDS011;10835;50.148;19.760;2023-05-14T09:35:34;3.40;;;2.40;;
21354;SDS011;10835;50.148;19.760;2023-05-14T09:38:06;4.20;;;2.13;;
21354;SDS011;10835;50.148;19.760;2023-05-14T09:40:35;3.40;;;2.13;;
21354;SDS011;10835;50.148;19.760;2023-05-14T09:43:03;1.95;;;1.73;;
21354;SDS011;10835;50.148;19.760;2023-05-14T09:45:32;3.05;;;2.05;;
21354;SDS011;10835;50.148;19.760;2023-05-14T09:48:01;2.08;;;1.80;;
21354;SDS011;10835;50.148;19.760;2023-05-14T09:50:34;2.03;;;1.83;;
21354;SDS011;10835;50.148;19.760;2023-05-14T09:53:08;3.10;;;1.90;;
21354;SDS011;10835;50.148;19.760;2023-05-14T09:55:37;2.40;;;1.67;;
21354;SDS011;10835;50.148;19.760;2023-05-14T09:58:08;3.03;;;2.10;;
21354;SDS011;10835;50.148;19.760;2023-05-14T10:00:36;2.03;;;1.80;;
21354;SDS011;10835;50.148;19.760;2023-05-14T10:03:05;1.90;;;1.80;;
21354;SDS011;10835;50.148;19.760;2023-05-14T10:05:35;2.60;;;1.73;;
21354;SDS011;10835;50.148;19.760;2023-05-14T10:08:07;1.75;;;1.63;;
21354;SDS011;10835;50.148;19.760;2023-05-14T10:10:41;2.15;;;1.63;;
21354;SDS011;10835;50.148;19.760;2023-05-14T10:13:10;1.48;;;1.33;;
21354;SDS011;10835;50.148;19.760;2023-05-14T10:15:46;1.77;;;1.38;;
21354;SDS011;10835;50.148;19.760;2023-05-14T10:18:16;2.13;;;1.60;;
21354;SDS011;10835;50.148;19.760;2023-05-14T10:21:03;1.67;;;1.58;;
21354;SDS011;10835;50.148;19.760;2023-05-14T10:23:37;1.60;;;1.42;;
21354;SDS011;10835;50.148;19.760;2023-05-14T10:26:07;2.30;;;1.52;;
21354;SDS011;10835;50.148;19.760;2023-05-14T10:28:37;1.73;;;1.50;;
21354;SDS011;10835;50.148;19.760;2023-05-14T10:31:07;2.90;;;1.10;;
21354;SDS011;10835;50.148;19.760;2023-05-14T10:33:45;2.63;;;1.30;;
21354;SDS011;10835;50.148;19.760;2023-05-14T10:36:15;2.90;;;1.20;;
21354;SDS011;10835;50.148;19.760;2023-05-14T10:38:45;4.30;;;1.40;;
21354;SDS011;10835;50.148;19.760;2023-05-14T10:41:21;1.33;;;1.17;;
21354;SDS011;10835;50.148;19.760;2023-05-14T10:43:50;2.08;;;1.02;;
21354;SDS011;10835;50.148;19.760;2023-05-14T10:46:18;1.67;;;1.23;;
21354;SDS011;10835;50.148;19.760;2023-05-14T10:48:48;2.30;;;1.70;;
21354;SDS011;10835;50.148;19.760;2023-05-14T10:51:18;1.38;;;1.27;;
21354;SDS011;10835;50.148;19.760;2023-05-14T10:53:48;1.83;;;1.20;;
21354;SDS011;10835;50.148;19.760;2023-05-14T10:56:16;2.55;;;1.30;;
21354;SDS011;10835;50.148;19.760;2023-05-14T10:58:46;6.70;;;1.08;;
21354;SDS011;10835;50.148;19.760;2023-05-14T11:01:16;2.33;;;1.48;;
21354;SDS011;10835;50.148;19.760;2023-05-14T11:03:50;1.75;;;1.45;;
21354;SDS011;10835;50.148;19.760;2023-05-14T11:06:23;1.90;;;1.35;;
21354;SDS011;10835;50.148;19.760;2023-05-14T11:08:55;1.30;;;1.20;;
21354;SDS011;10835;50.148;19.760;2023-05-14T11:11:29;1.60;;;1.38;;
21354;SDS011;10835;50.148;19.760;2023-05-14T11:13:57;6.63;;;1.63;;
21354;SDS011;10835;50.148;19.760;2023-05-14T11:16:26;2.08;;;1.35;;
21354;SDS011;10835;50.148;19.760;2023-05-14T11:18:59;1.70;;;1.20;;
21354;SDS011;10835;50.148;19.760;2023-05-14T11:21:32;1.92;;;1.20;;
21354;SDS011;10835;50.148;19.760;2023-05-14T11:24:00;2.00;;;1.38;;
21354;SDS011;10835;50.148;19.760;2023-05-14T11:26:30;2.00;;;1.13;;
21354;SDS011;10835;50.148;19.760;2023-05-14T11:28:59;2.20;;;0.93;;
21354;SDS011;10835;50.148;19.760;2023-05-14T11:31:27;2.08;;;1.30;;
21354;SDS011;10835;50.148;19.760;2023-05-14T11:33:56;1.65;;;1.33;;
21354;SDS011;10835;50.148;19.760;2023-05-14T11:36:26;2.55;;;1.08;;
21354;SDS011;10835;50.148;19.760;2023-05-14T11:38:56;1.30;;;1.20;;
21354;SDS011;10835;50.148;19.760;2023-05-14T11:41:24;1.00;;;1.00;;
21354;SDS011;10835;50.148;19.760;2023-05-14T11:43:57;3.45;;;1.45;;
21354;SDS011;10835;50.148;19.760;2023-05-14T11:46:28;1.58;;;1.25;;
21354;SDS011;10835;50.148;19.760;2023-05-14T11:48:56;1.95;;;1.38;;
21354;SDS011;10835;50.148;19.760;2023-05-14T11:51:25;1.63;;;1.10;;
21354;SDS011;10835;50.148;19.760;2023-05-14T11:53:58;2.25;;;1.48;;
21354;SDS011;10835;50.148;19.760;2023-05-14T11:56:29;1.48;;;1.30;;
21354;SDS011;10835;50.148;19.760;2023-05-14T11:58:58;1.30;;;1.05;;
21354;SDS011;10835;50.148;19.760;2023-05-14T12:01:26;2.08;;;0.95;;
21354;SDS011;10835;50.148;19.760;2023-05-14T12:03:59;1.15;;;1.05;;
21354;SDS011;10835;50.148;19.760;2023-05-14T12:06:29;3.65;;;1.13;;
21354;SDS011;10835;50.148;19.760;2023-05-14T12:09:01;2.95;;;1.30;;
21354;SDS011;10835;50.148;19.760;2023-05-14T12:11:34;1.15;;;1.00;;
21354;SDS011;10835;50.148;19.760;2023-05-14T12:14:09;2.03;;;1.50;;
21354;SDS011;10835;50.148;19.760;2023-05-14T12:16:39;1.75;;;1.30;;
21354;SDS011;10835;50.148;19.760;2023-05-14T12:19:08;1.52;;;1.17;;
21354;SDS011;10835;50.148;19.760;2023-05-14T12:21:38;1.20;;;1.10;;
21354;SDS011;10835;50.148;19.760;2023-05-14T12:24:09;1.38;;;1.10;;
21354;SDS011;10835;50.148;19.760;2023-05-14T12:26:42;1.25;;;0.93;;
21354;SDS011;10835;50.148;19.760;2023-05-14T12:29:11;1.30;;;1.00;;
21354;SDS011;10835;50.148;19.760;2023-05-14T12:31:45;1.13;;;0.93;;
21354;SDS011;10835;50.148;19.760;2023-05-14T12:34:14;1.10;;;0.98;;
21354;SDS011;10835;50.148;19.760;2023-05-14T12:36:47;1.20;;;0.85;;
21354;SDS011;10835;50.148;19.760;2023-05-14T12:39:17;1.15;;;1.05;;
21354;SDS011;10835;50.148;19.760;2023-05-14T12:41:46;0.58;;;0.58;;
21354;SDS011;10835;50.148;19.760;2023-05-14T12:44:22;4.25;;;1.10;;
21354;SDS011;10835;50.148;19.760;2023-05-14T12:46:51;2.45;;;1.00;;
21354;SDS011;10835;50.148;19.760;2023-05-14T12:49:22;1.80;;;1.13;;
21354;SDS011;10835;50.148;19.760;2023-05-14T12:51:50;0.85;;;0.80;;
21354;SDS011;10835;50.148;19.760;2023-05-14T12:54:41;1.70;;;1.08;;
21354;SDS011;10835;50.148;19.760;2023-05-14T12:57:09;1.20;;;1.02;;
21354;SDS011;10835;50.148;19.760;2023-05-14T12:59:38;1.58;;;0.93;;
21354;SDS011;10835;50.148;19.760;2023-05-14T13:02:09;2.75;;;1.10;;
21354;SDS011;10835;50.148;19.760;2023-05-14T13:04:40;1.85;;;0.98;;
21354;SDS011;10835;50.148;19.760;2023-05-14T13:07:10;2.53;;;1.00;;
21354;SDS011;10835;50.148;19.760;2023-05-14T13:09:38;1.98;;;1.17;;
21354;SDS011;10835;50.148;19.760;2023-05-14T13:12:10;1.10;;;0.70;;
21354;SDS011;10835;50.148;19.760;2023-05-14T13:14:41;1.48;;;1.02;;
21354;SDS011;10835;50.148;19.760;2023-05-14T13:17:09;1.10;;;1.00;;
21354;SDS011;10835;50.148;19.760;2023-05-14T13:19:42;1.13;;;1.05;;
21354;SDS011;10835;50.148;19.760;2023-05-14T13:22:11;1.10;;;0.80;;
21354;SDS011;10835;50.148;19.760;2023-05-14T13:24:40;1.60;;;1.02;;
21354;SDS011;10835;50.148;19.760;2023-05-14T13:27:11;1.02;;;0.93;;
21354;SDS011;10835;50.148;19.760;2023-05-14T13:29:39;1.05;;;0.88;;
21354;SDS011;10835;50.148;19.760;2023-05-14T13:32:08;1.67;;;1.10;;
21354;SDS011;10835;50.148;19.760;2023-05-14T13:34:36;2.72;;;1.10;;
21354;SDS011;10835;50.148;19.760;2023-05-14T13:37:06;1.90;;;0.98;;
21354;SDS011;10835;50.148;19.760;2023-05-14T13:39:37;1.65;;;1.10;;
21354;SDS011;10835;50.148;19.760;2023-05-14T13:42:07;2.00;;;1.10;;
21354;SDS011;10835;50.148;19.760;2023-05-14T13:44:36;2.47;;;1.20;;
21354;SDS011;10835;50.148;19.760;2023-05-14T13:47:06;1.27;;;1.17;;
21354;SDS011;10835;50.148;19.760;2023-05-14T13:49:37;1.35;;;1.17;;
21354;SDS011;10835;50.148;19.760;2023-05-14T13:52:06;1.00;;;0.90;;
21354;SDS011;10835;50.148;19.760;2023-05-14T13:54:35;1.27;;;1.00;;
21354;SDS011;10835;50.148;19.760;2023-05-14T13:57:03;0.88;;;0.88;;
21354;SDS011;10835;50.148;19.760;2023-05-14T13:59:33;1.90;;;1.20;;
21354;SDS011;10835;50.148;19.760;2023-05-14T14:02:06;1.73;;;1.00;;
21354;SDS011;10835;50.148;19.760;2023-05-14T14:04:37;1.17;;;1.00;;
21354;SDS011;10835;50.148;19.760;2023-05-14T14:07:05;1.17;;;0.90;;
21354;SDS011;10835;50.148;19.760;2023-05-14T14:09:48;0.95;;;0.80;;
21354;SDS011;10835;50.148;19.760;2023-05-14T14:12:17;0.82;;;0.82;;
21354;SDS011;10835;50.148;19.760;2023-05-14T14:14:45;2.65;;;1.05;;
21354;SDS011;10835;50.148;19.760;2023-05-14T14:17:18;3.17;;;1.10;;
21354;SDS011;10835;50.148;19.760;2023-05-14T14:19:49;3.70;;;1.00;;
21354;SDS011;10835;50.148;19.760;2023-05-14T14:22:18;2.75;;;0.77;;
21354;SDS011;10835;50.148;19.760;2023-05-14T14:24:54;1.23;;;0.80;;
21354;SDS011;10835;50.148;19.760;2023-05-14T14:27:25;1.08;;;0.82;;
21354;SDS011;10835;50.148;19.760;2023-05-14T14:29:56;0.70;;;0.70;;
21354;SDS011;10835;50.148;19.760;2023-05-14T14:32:26;1.58;;;0.88;;
21354;SDS011;10835;50.148;19.760;2023-05-14T14:34:54;1.58;;;0.90;;
21354;SDS011;10835;50.148;19.760;2023-05-14T14:37:22;2.97;;;0.90;;
21354;SDS011;10835;50.148;19.760;2023-05-14T14:39:50;0.82;;;0.80;;
21354;SDS011;10835;50.148;19.760;2023-05-14T14:42:22;2.08;;;0.82;;
21354;SDS011;10835;50.148;19.760;2023-05-14T14:44:50;3.03;;;1.08;;
21354;SDS011;10835;50.148;19.760;2023-05-14T14:47:18;1.60;;;1.00;;